KLVN

Airlake Airport

Minneapolis, Minnesota, USA
METAR KLVN 201955Z AUTO 05005KT 10SM SCT025 SCT110 24/22 A2993 RMK AO2 LTG DSNT SE
Observed Flight Rules
Aug-20 @ 19:55 UTC (35 minutes ago) Visual Flight Rules
Wind Visibility Clouds
50° at 5 knots 10 miles
  • Scattered at 2,500' AGL
  • Scattered at 11,000' AGL
Temperatures Readings
Current 24°C / 75°F
Dewpoint 22°C / 72°F
Humidity 89%
Altimeter 29.93" Hg
Pressure 1014 hPa
Elevation 293
METAR KLVN 201955Z AUTO 05005KT 10SM SCT025 SCT110 24/22 A2993 RMK AO2 LTG DSNT SE
Observed Flight Rules
Aug-20 @ 19:55 UTC
(35 minutes ago)
VFR
Wind Visibility
50° at 5 knots 10 miles
Clouds
  • Scattered at 2,500' AGL
  • Scattered at 11,000' AGL
Temperature Dewpoint
24°C / 75°F 22°C / 72°F
Humidity Altimeter Pressure
89% 29.93" Hg 1014 hPa